createdAt,value
2018-02-04T00:00:53.800Z,0.61
2018-02-04T00:03:22.260Z,0.69
2018-02-04T00:05:50.245Z,0.68
2018-02-04T00:08:18.462Z,0.67
2018-02-04T00:10:46.495Z,0.65
2018-02-04T00:13:14.496Z,0.96
2018-02-04T00:15:42.529Z,1.17
2018-02-04T00:18:10.547Z,1.68
2018-02-04T00:20:38.528Z,1.63
2018-02-04T00:23:06.536Z,1.38
2018-02-04T00:25:34.615Z,1.10
2018-02-04T00:28:02.656Z,1.14
2018-02-04T00:30:30.655Z,1.05
2018-02-04T00:32:58.622Z,1.11
2018-02-04T00:35:26.596Z,1.14
2018-02-04T00:37:54.582Z,1.09
2018-02-04T00:40:22.565Z,1.08
2018-02-04T00:42:50.547Z,1.12
2018-02-04T00:45:19.277Z,1.13
2018-02-04T00:47:47.486Z,1.14
2018-02-04T00:50:16.048Z,1.11
2018-02-04T00:52:44.014Z,1.14
2018-02-04T00:55:12.062Z,1.27
2018-02-04T00:57:40.128Z,1.39
2018-02-04T01:00:08.092Z,1.25
2018-02-04T01:02:36.074Z,1.21
2018-02-04T01:05:04.100Z,1.17
2018-02-04T01:07:32.083Z,1.11
2018-02-04T01:10:00.069Z,1.12
2018-02-04T01:12:28.100Z,1.08
2018-02-04T01:14:56.065Z,1.08
2018-02-04T01:17:24.028Z,1.07
2018-02-04T01:19:52.014Z,0.99
2018-02-04T01:22:20.064Z,1.08
2018-02-04T01:24:48.603Z,1.10
2018-02-04T01:27:16.639Z,1.12
2018-02-04T01:29:44.629Z,1.14
2018-02-04T01:32:12.606Z,1.26
2018-02-04T01:34:40.656Z,1.29
2018-02-04T01:37:08.624Z,1.08
2018-02-04T01:39:36.679Z,1.04
2018-02-04T01:42:04.645Z,1.07
2018-02-04T01:44:32.613Z,1.05
2018-02-04T01:47:00.613Z,1.02
2018-02-04T01:49:28.805Z,1.09
2018-02-04T01:51:56.778Z,1.08
2018-02-04T01:54:24.760Z,1.21
2018-02-04T01:56:52.753Z,1.11
2018-02-04T01:59:20.745Z,1.06
2018-02-04T02:01:48.773Z,1.08
2018-02-04T02:04:16.772Z,1.07
2018-02-04T02:06:44.839Z,1.14
2018-02-04T02:09:12.809Z,1.12
2018-02-04T02:11:40.801Z,1.14
2018-02-04T02:14:08.849Z,1.07
2018-02-04T02:16:36.968Z,1.08
2018-02-04T02:19:04.984Z,1.23
2018-02-04T02:21:32.972Z,1.14
2018-02-04T02:24:00.965Z,1.18
2018-02-04T02:26:28.949Z,1.17
2018-02-04T02:28:57.592Z,0.99
2018-02-04T02:31:25.556Z,0.97
2018-02-04T02:33:53.552Z,0.88
2018-02-04T02:36:21.525Z,0.94
2018-02-04T02:38:49.639Z,0.95
2018-02-04T02:41:17.637Z,0.98
2018-02-04T02:43:45.614Z,0.84
2018-02-04T02:46:13.584Z,0.91
2018-02-04T02:48:41.564Z,0.78
2018-02-04T02:51:09.566Z,0.76
2018-02-04T02:53:37.541Z,0.71
2018-02-04T02:56:05.535Z,0.62
2018-02-04T02:58:33.532Z,0.59
2018-02-04T03:01:01.526Z,0.59
2018-02-04T03:03:29.637Z,0.48
2018-02-04T03:05:57.616Z,0.35
2018-02-04T03:08:25.633Z,0.33
2018-02-04T03:10:53.767Z,0.30
2018-02-04T03:13:21.757Z,0.32
2018-02-04T03:15:49.723Z,0.23
2018-02-04T03:18:17.823Z,0.22
2018-02-04T03:20:45.796Z,0.19
2018-02-04T03:23:14.226Z,0.09
2018-02-04T03:25:42.883Z,0.03
2018-02-04T03:28:10.866Z,-0.00
2018-02-04T03:30:38.853Z,0.02
2018-02-04T03:33:06.876Z,-0.02
2018-02-04T03:35:34.896Z,-0.02
2018-02-04T03:38:02.882Z,-0.05
2018-02-04T03:40:30.891Z,-0.15
2018-02-04T03:42:58.865Z,-0.16
2018-02-04T03:45:26.871Z,-0.09
2018-02-04T03:47:54.872Z,-0.12
2018-02-04T03:50:22.880Z,-0.11
2018-02-04T03:52:50.868Z,-0.08
2018-02-04T03:55:18.929Z,-0.01
2018-02-04T03:57:46.957Z,0.03
2018-02-04T04:00:14.921Z,-0.07
2018-02-04T04:02:42.859Z,-0.09
2018-02-04T04:05:10.890Z,-0.09
2018-02-04T04:07:39.093Z,-0.12
2018-02-04T04:10:07.012Z,-0.09
2018-02-04T04:12:34.954Z,-0.10
2018-02-04T04:15:02.977Z,-0.05
2018-02-04T04:17:30.893Z,-0.02
2018-02-04T04:19:58.825Z,-0.02
2018-02-04T04:22:26.822Z,-0.07
2018-02-04T04:24:54.762Z,0.01
2018-02-04T04:27:22.718Z,0.06
2018-02-04T04:29:50.680Z,0.03
2018-02-04T04:32:18.611Z,0.05
2018-02-04T04:34:46.594Z,0.12
2018-02-04T04:37:14.560Z,0.02
2018-02-04T04:39:42.497Z,0.02
2018-02-04T04:42:10.442Z,0.06
2018-02-04T04:44:38.485Z,0.13
2018-02-04T04:47:06.406Z,0.16
2018-02-04T04:49:34.354Z,0.07
2018-02-04T04:52:02.261Z,0.09
2018-02-04T04:54:30.231Z,0.10
2018-02-04T04:56:58.157Z,0.16
2018-02-04T04:59:26.267Z,0.12
2018-02-04T05:01:54.187Z,0.15
2018-02-04T05:04:22.113Z,0.14
2018-02-04T05:06:50.125Z,0.08
2018-02-04T05:09:18.101Z,0.16
2018-02-04T05:11:46.029Z,0.19
2018-02-04T05:14:13.991Z,0.15
2018-02-04T05:16:41.932Z,0.24
2018-02-04T05:19:09.877Z,0.35
2018-02-04T05:21:37.817Z,0.19
2018-02-04T05:24:05.757Z,0.29
2018-02-04T05:26:33.707Z,0.21
2018-02-04T05:29:01.641Z,0.34
2018-02-04T05:31:29.779Z,0.33
2018-02-04T05:33:57.719Z,0.40
2018-02-04T05:36:25.666Z,0.46
2018-02-04T05:38:53.604Z,0.30
2018-02-04T05:41:21.544Z,0.74
2018-02-04T05:43:49.478Z,1.02
2018-02-04T05:46:17.376Z,1.16
2018-02-04T05:48:45.327Z,1.45
2018-02-04T05:51:13.248Z,1.35
2018-02-04T05:53:41.189Z,1.34
2018-02-04T05:56:09.165Z,1.29
2018-02-04T05:58:37.077Z,1.14
2018-02-04T06:01:05.025Z,1.04
2018-02-04T06:03:33.265Z,1.12
2018-02-04T06:06:01.365Z,0.98
2018-02-04T06:08:29.875Z,0.78
2018-02-04T06:10:58.522Z,0.96
2018-02-04T06:13:26.474Z,0.88
2018-02-04T06:15:54.424Z,1.08
2018-02-04T06:18:22.398Z,1.53
2018-02-04T06:20:50.366Z,1.43
2018-02-04T06:23:18.335Z,1.24
2018-02-04T06:25:46.913Z,1.08
2018-02-04T06:28:15.507Z,1.05
2018-02-04T06:30:43.497Z,1.03
2018-02-04T06:33:11.437Z,1.09
2018-02-04T06:35:39.364Z,0.99
2018-02-04T06:38:07.353Z,1.09
2018-02-04T06:40:35.318Z,1.02
2018-02-04T06:43:03.321Z,1.03
2018-02-04T06:45:31.260Z,1.01
2018-02-04T06:47:59.210Z,0.91
2018-02-04T06:50:27.122Z,0.96
2018-02-04T06:52:55.196Z,0.97
2018-02-04T06:55:23.221Z,0.92
2018-02-04T06:57:51.187Z,0.94
2018-02-04T07:00:19.215Z,1.07
2018-02-04T07:02:47.209Z,1.04
2018-02-04T07:05:15.870Z,0.87
2018-02-04T07:07:43.773Z,0.97
2018-02-04T07:10:11.870Z,0.99
2018-02-04T07:12:39.801Z,1.02
2018-02-04T07:15:08.142Z,1.11
2018-02-04T07:17:36.064Z,1.03
2018-02-04T07:20:04.004Z,0.95
2018-02-04T07:22:31.952Z,1.01
2018-02-04T07:25:00.005Z,1.05
2018-02-04T07:27:28.250Z,1.05
2018-02-04T07:29:56.193Z,1.17
2018-02-04T07:32:24.199Z,1.16
2018-02-04T07:34:52.155Z,1.14
2018-02-04T07:37:20.065Z,1.10
2018-02-04T07:39:48.096Z,1.12
2018-02-04T07:42:16.131Z,1.25
2018-02-04T07:44:44.046Z,1.23
2018-02-04T07:47:11.980Z,1.16
2018-02-04T07:49:39.953Z,1.13
2018-02-04T07:52:07.862Z,1.22
2018-02-04T07:54:35.774Z,1.06
2018-02-04T07:57:04.030Z,1.13
2018-02-04T07:59:31.938Z,1.19
2018-02-04T08:01:59.998Z,1.20
2018-02-04T08:04:28.064Z,1.25
2018-02-04T08:06:56.004Z,1.05
2018-02-04T08:09:23.919Z,1.21
2018-02-04T08:11:51.845Z,1.28
2018-02-04T08:14:19.763Z,1.26
2018-02-04T08:16:47.693Z,1.12
2018-02-04T08:19:15.624Z,1.14
2018-02-04T08:21:43.662Z,1.17
2018-02-04T08:24:11.608Z,1.29
2018-02-04T08:26:39.561Z,1.25
2018-02-04T08:29:07.493Z,1.33
2018-02-04T08:31:35.460Z,1.41
2018-02-04T08:34:03.526Z,1.50
2018-02-04T08:36:31.442Z,1.37
2018-02-04T08:38:59.359Z,1.31
2018-02-04T08:41:27.318Z,1.46
2018-02-04T08:43:55.365Z,1.51
2018-02-04T08:46:23.339Z,1.54
2018-02-04T08:48:51.266Z,1.58
2018-02-04T08:51:19.906Z,1.67
2018-02-04T08:53:47.828Z,1.68
2018-02-04T08:56:15.761Z,1.66
2018-02-04T08:58:43.738Z,1.77
2018-02-04T09:01:11.703Z,1.77
2018-02-04T09:03:39.787Z,1.79
2018-02-04T09:06:08.540Z,1.80
2018-02-04T09:08:36.493Z,1.85
2018-02-04T09:11:04.853Z,1.97
2018-02-04T09:13:32.811Z,1.96
2018-02-04T09:16:01.112Z,1.99
2018-02-04T09:18:29.136Z,2.13
2018-02-04T09:20:57.053Z,2.07
2018-02-04T09:23:25.094Z,2.12
2018-02-04T09:25:53.012Z,2.13
2018-02-04T09:28:20.999Z,2.11
2018-02-04T09:30:49.130Z,2.11
2018-02-04T09:33:17.125Z,2.35
2018-02-04T09:35:45.098Z,2.30
2018-02-04T09:38:13.021Z,2.32
2018-02-04T09:40:41.009Z,2.49
2018-02-04T09:43:08.976Z,2.44
2018-02-04T09:45:37.003Z,2.43
2018-02-04T09:48:04.989Z,2.49
2018-02-04T09:50:33.277Z,2.55
2018-02-04T09:53:01.213Z,2.54
2018-02-04T09:55:29.152Z,2.65
2018-02-04T09:57:57.132Z,2.76
2018-02-04T10:00:25.111Z,2.65
2018-02-04T10:02:53.038Z,2.69
2018-02-04T10:05:21.061Z,2.87
2018-02-04T10:07:49.067Z,3.06
2018-02-04T10:10:17.013Z,3.26
2018-02-04T10:12:44.941Z,3.33
2018-02-04T10:15:12.886Z,3.46
2018-02-04T10:17:40.816Z,3.69
2018-02-04T10:20:08.773Z,3.69
2018-02-04T10:22:36.916Z,3.60
2018-02-04T10:25:04.850Z,3.60
2018-02-04T10:27:32.764Z,3.67
2018-02-04T10:30:00.744Z,3.55
2018-02-04T10:32:28.685Z,3.58
2018-02-04T10:34:56.683Z,3.56
2018-02-04T10:37:24.658Z,3.62
2018-02-04T10:39:52.625Z,3.49
2018-02-04T10:42:20.573Z,3.49
2018-02-04T10:44:48.506Z,3.30
2018-02-04T10:47:16.452Z,3.24
2018-02-04T10:49:45.343Z,3.24
2018-02-04T10:52:13.261Z,3.13
2018-02-04T10:54:41.244Z,3.27
2018-02-04T10:57:09.149Z,3.24
2018-02-04T10:59:37.085Z,3.20
2018-02-04T11:02:05.008Z,3.15
2018-02-04T11:04:32.929Z,3.14
2018-02-04T11:07:00.861Z,3.08
2018-02-04T11:09:28.797Z,3.27
2018-02-04T11:11:56.760Z,3.10
2018-02-04T11:14:24.845Z,3.06
2018-02-04T11:16:52.764Z,3.00
2018-02-04T11:19:20.849Z,3.05
2018-02-04T11:21:48.741Z,2.93
2018-02-04T11:24:16.730Z,2.86
2018-02-04T11:26:44.661Z,2.97
2018-02-04T11:29:12.615Z,2.78
2018-02-04T11:31:40.579Z,2.76
2018-02-04T11:34:08.485Z,2.69
2018-02-04T11:36:36.502Z,2.66
2018-02-04T11:39:04.422Z,2.71
2018-02-04T11:41:32.390Z,2.72
2018-02-04T11:44:00.346Z,2.80
2018-02-04T11:46:28.307Z,2.99
2018-02-04T11:48:56.324Z,2.95
2018-02-04T11:51:24.328Z,2.80
2018-02-04T11:53:52.269Z,2.95
2018-02-04T11:56:20.199Z,2.86
2018-02-04T11:58:48.118Z,2.95
2018-02-04T12:01:16.184Z,2.99
2018-02-04T12:03:44.128Z,2.90
2018-02-04T12:06:12.073Z,2.96
2018-02-04T12:08:40.021Z,2.93
2018-02-04T12:11:07.961Z,2.96
2018-02-04T12:13:35.945Z,2.94
2018-02-04T12:16:04.160Z,2.94
2018-02-04T12:18:32.101Z,3.04
2018-02-04T12:21:00.031Z,3.17
2018-02-04T12:23:27.930Z,3.28
2018-02-04T12:25:55.864Z,3.29
2018-02-04T12:28:23.802Z,3.30
2018-02-04T12:30:51.769Z,3.40
2018-02-04T12:33:19.678Z,3.38
2018-02-04T12:35:47.993Z,3.45
2018-02-04T12:38:15.975Z,3.41
2018-02-04T12:40:43.853Z,3.48
2018-02-04T12:43:11.802Z,3.46
2018-02-04T12:45:39.784Z,3.54
2018-02-04T12:48:07.691Z,3.53
2018-02-04T12:50:35.689Z,3.65
2018-02-04T12:53:03.627Z,3.54
2018-02-04T12:55:31.879Z,3.57
2018-02-04T12:58:00.022Z,3.63
2018-02-04T13:00:27.960Z,3.76
2018-02-04T13:02:55.898Z,3.71
2018-02-04T13:05:23.918Z,3.82
2018-02-04T13:07:51.817Z,3.98
2018-02-04T13:10:19.725Z,3.86
2018-02-04T13:12:47.655Z,3.79
2018-02-04T13:15:15.620Z,3.90
2018-02-04T13:17:43.554Z,4.00
2018-02-04T13:20:11.529Z,4.09
2018-02-04T13:22:39.489Z,3.95
2018-02-04T13:25:07.423Z,4.08
2018-02-04T13:27:35.363Z,4.09
2018-02-04T13:30:03.314Z,4.04
2018-02-04T13:32:31.245Z,4.04
2018-02-04T13:34:59.149Z,4.02
2018-02-04T13:37:27.129Z,4.01
2018-02-04T13:39:55.295Z,4.10
2018-02-04T13:42:23.226Z,4.08
2018-02-04T13:44:51.137Z,4.21
2018-02-04T13:47:19.067Z,3.98
2018-02-04T13:49:46.993Z,3.94
2018-02-04T13:52:14.929Z,4.05
2018-02-04T13:54:42.842Z,4.13
2018-02-04T13:57:10.773Z,4.13
2018-02-04T13:59:38.764Z,4.07
2018-02-04T14:02:06.681Z,3.91
2018-02-04T14:04:34.614Z,3.90
2018-02-04T14:07:02.534Z,4.00
2018-02-04T14:09:30.457Z,3.91
2018-02-04T14:11:58.388Z,4.06
2018-02-04T14:14:26.321Z,3.95
2018-02-04T14:16:54.392Z,3.98
2018-02-04T14:19:22.439Z,4.05
2018-02-04T14:21:50.369Z,4.07
2018-02-04T14:24:18.285Z,4.16
2018-02-04T14:26:46.212Z,4.19
2018-02-04T14:29:14.181Z,4.33
2018-02-04T14:31:42.107Z,4.16
2018-02-04T14:34:10.017Z,4.17
2018-02-04T14:36:38.019Z,4.21
2018-02-04T14:39:05.966Z,4.22
2018-02-04T14:41:33.884Z,4.17
2018-02-04T14:44:01.824Z,4.14
2018-02-04T14:46:29.736Z,4.08
2018-02-04T14:48:57.689Z,4.14
2018-02-04T14:51:25.615Z,4.17
2018-02-04T14:53:53.533Z,4.24
2018-02-04T14:56:21.494Z,4.05
2018-02-04T14:58:49.415Z,4.10
2018-02-04T15:01:17.367Z,4.04
2018-02-04T15:03:45.246Z,4.06
2018-02-04T15:06:13.178Z,4.05
2018-02-04T15:08:41.088Z,4.10
2018-02-04T15:11:09.118Z,4.09
2018-02-04T15:13:37.008Z,4.09
2018-02-04T15:16:04.946Z,4.08
2018-02-04T15:18:32.868Z,4.04
2018-02-04T15:21:01.206Z,4.01
2018-02-04T15:23:29.145Z,3.97
2018-02-04T15:25:57.284Z,3.94
2018-02-04T15:28:25.775Z,3.89
2018-02-04T15:30:53.890Z,3.83
2018-02-04T15:33:21.809Z,3.72
2018-02-04T15:35:49.732Z,3.71
2018-02-04T15:38:17.660Z,3.52
2018-02-04T15:40:45.635Z,3.58
2018-02-04T15:43:13.569Z,3.41
2018-02-04T15:45:41.498Z,3.39
2018-02-04T15:48:09.416Z,3.36
2018-02-04T15:50:37.317Z,3.26
2018-02-04T15:53:05.249Z,3.30
2018-02-04T15:55:33.175Z,3.26
2018-02-04T15:58:01.091Z,3.26
2018-02-04T16:00:28.985Z,3.05
2018-02-04T16:02:56.938Z,3.02
2018-02-04T16:05:24.832Z,3.12
2018-02-04T16:07:52.773Z,3.04
2018-02-04T16:10:20.686Z,3.15
2018-02-04T16:12:48.601Z,3.00
2018-02-04T16:15:16.615Z,2.98
2018-02-04T16:17:44.535Z,2.94
2018-02-04T16:20:12.504Z,3.05
2018-02-04T16:22:40.412Z,3.05
2018-02-04T16:25:08.330Z,2.95
2018-02-04T16:27:36.264Z,2.97
2018-02-04T16:30:04.181Z,3.08
2018-02-04T16:32:32.091Z,3.00
2018-02-04T16:35:00.813Z,2.95
2018-02-04T16:37:28.855Z,2.96
2018-02-04T16:39:56.776Z,2.88
2018-02-04T16:42:24.692Z,2.90
2018-02-04T16:44:53.197Z,2.94
2018-02-04T16:47:21.483Z,2.97
2018-02-04T16:49:49.380Z,2.89
2018-02-04T16:52:17.349Z,2.96
2018-02-04T16:54:45.262Z,2.96
2018-02-04T16:57:13.196Z,3.01
2018-02-04T16:59:41.141Z,2.98
2018-02-04T17:02:09.068Z,2.94
2018-02-04T17:04:36.981Z,3.01
2018-02-04T17:07:04.899Z,3.10
2018-02-04T17:09:32.893Z,2.99
2018-02-04T17:12:00.801Z,2.98
2018-02-04T17:14:28.765Z,2.94
2018-02-04T17:16:56.708Z,3.03
2018-02-04T17:19:24.637Z,3.11
2018-02-04T17:21:52.585Z,3.03
2018-02-04T17:24:21.013Z,3.04
2018-02-04T17:26:48.925Z,3.03
2018-02-04T17:29:17.660Z,3.09
2018-02-04T17:31:45.571Z,3.01
2018-02-04T17:34:13.467Z,2.89
2018-02-04T17:36:41.386Z,2.86
2018-02-04T17:39:09.286Z,2.81
2018-02-04T17:41:38.196Z,2.85
2018-02-04T17:44:06.108Z,2.81
2018-02-04T17:46:34.093Z,2.84
2018-02-04T17:49:02.066Z,2.88
2018-02-04T17:51:30.788Z,2.95
2018-02-04T17:53:58.681Z,2.90
2018-02-04T17:56:26.662Z,2.86
2018-02-04T17:58:54.582Z,2.95
2018-02-04T18:01:22.488Z,2.96
2018-02-04T18:03:50.396Z,2.97
2018-02-04T18:06:18.369Z,2.87
2018-02-04T18:08:46.265Z,3.05
2018-02-04T18:11:14.182Z,2.96
2018-02-04T18:13:42.132Z,2.97
2018-02-04T18:16:10.099Z,3.13
2018-02-04T18:18:38.109Z,3.15
2018-02-04T18:21:06.071Z,2.99
2018-02-04T18:23:33.990Z,3.10
2018-02-04T18:26:01.968Z,2.99
2018-02-04T18:28:29.913Z,2.98
2018-02-04T18:30:57.897Z,2.99
2018-02-04T18:33:25.885Z,3.06
2018-02-04T18:35:53.802Z,2.96
2018-02-04T18:38:22.238Z,2.89
2018-02-04T18:40:50.171Z,2.91
2018-02-04T18:43:18.078Z,2.99
2018-02-04T18:45:46.109Z,2.88
2018-02-04T18:48:14.022Z,2.87
2018-02-04T18:50:41.945Z,2.86
2018-02-04T18:53:09.937Z,2.98
2018-02-04T18:55:37.877Z,2.99
2018-02-04T18:58:05.785Z,2.89
2018-02-04T19:00:33.694Z,2.95
2018-02-04T19:03:01.626Z,3.12
2018-02-04T19:05:29.569Z,2.96
2018-02-04T19:07:57.490Z,3.05
2018-02-04T19:10:25.404Z,2.98
2018-02-04T19:12:53.320Z,2.97
2018-02-04T19:15:21.212Z,2.93
2018-02-04T19:17:49.218Z,3.03
2018-02-04T19:20:17.145Z,3.06
2018-02-04T19:22:45.136Z,2.87
2018-02-04T19:25:13.027Z,2.79
2018-02-04T19:27:41.016Z,2.89
2018-02-04T19:30:08.938Z,2.76
2018-02-04T19:32:36.891Z,2.80
2018-02-04T19:35:04.806Z,2.82
2018-02-04T19:37:32.830Z,2.62
2018-02-04T19:40:00.805Z,2.82
2018-02-04T19:42:28.710Z,2.69
2018-02-04T19:44:56.745Z,2.70
2018-02-04T19:47:24.717Z,2.64
2018-02-04T19:49:52.641Z,2.68
2018-02-04T19:52:20.559Z,2.68
2018-02-04T19:54:48.475Z,2.67
2018-02-04T19:57:16.385Z,2.57
2018-02-04T19:59:44.308Z,2.59
2018-02-04T20:02:12.257Z,2.62
2018-02-04T20:04:41.090Z,2.62
2018-02-04T20:07:09.001Z,2.56
2018-02-04T20:09:36.910Z,2.59
2018-02-04T20:12:04.837Z,2.58
2018-02-04T20:14:32.831Z,2.61
2018-02-04T20:17:00.796Z,2.83
2018-02-04T20:19:28.720Z,3.28
2018-02-04T20:21:56.661Z,3.19
2018-02-04T20:24:24.626Z,3.24
2018-02-04T20:26:52.592Z,3.01
2018-02-04T20:29:20.504Z,3.01
2018-02-04T20:31:48.435Z,3.13
2018-02-04T20:34:28.034Z,3.34
2018-02-04T20:36:55.977Z,3.18
2018-02-04T20:39:24.505Z,3.23
2018-02-04T20:41:52.414Z,3.35
2018-02-04T20:44:20.345Z,3.36
2018-02-04T20:46:49.130Z,3.58
2018-02-04T20:49:17.098Z,2.98
2018-02-04T20:51:45.119Z,2.80
2018-02-04T20:54:13.164Z,2.70
2018-02-04T20:56:41.137Z,2.47
2018-02-04T20:59:09.089Z,2.64
2018-02-04T21:01:37.002Z,2.49
2018-02-04T21:04:04.918Z,2.57
2018-02-04T21:06:32.864Z,2.44
2018-02-04T21:09:00.924Z,2.43
2018-02-04T21:11:29.318Z,2.50
2018-02-04T21:13:57.229Z,2.40
2018-02-04T21:16:25.237Z,2.76
2018-02-04T21:18:53.331Z,2.96
2018-02-04T21:21:21.233Z,3.17
2018-02-04T21:23:49.153Z,2.95
2018-02-04T21:26:17.101Z,2.89
2018-02-04T21:28:45.041Z,3.35
2018-02-04T21:31:12.980Z,3.28
2018-02-04T21:33:40.913Z,3.16
2018-02-04T21:36:08.824Z,3.53
2018-02-04T21:38:36.730Z,3.12
2018-02-04T21:41:04.718Z,3.12
2018-02-04T21:43:32.629Z,3.09
2018-02-04T21:46:00.576Z,2.93
2018-02-04T21:48:28.473Z,2.66
2018-02-04T21:50:56.390Z,2.58
2018-02-04T21:53:24.313Z,2.71
2018-02-04T21:55:52.334Z,2.58
2018-02-04T21:58:20.236Z,2.62
2018-02-04T22:00:48.226Z,2.65
2018-02-04T22:03:16.145Z,2.65
2018-02-04T22:05:44.071Z,2.69
2018-02-04T22:08:12.012Z,2.59
2018-02-04T22:10:39.945Z,2.53
2018-02-04T22:13:07.864Z,2.52
2018-02-04T22:15:35.874Z,2.47
2018-02-04T22:18:04.108Z,2.40
2018-02-04T22:20:32.048Z,2.42
2018-02-04T22:22:59.965Z,2.35
2018-02-04T22:25:27.946Z,2.29
2018-02-04T22:27:55.883Z,2.30
2018-02-04T22:30:23.818Z,2.23
2018-02-04T22:32:51.721Z,2.53
2018-02-04T22:35:19.708Z,2.90
2018-02-04T22:37:47.621Z,2.72
2018-02-04T22:40:15.616Z,2.52
2018-02-04T22:42:43.548Z,2.50
2018-02-04T22:45:11.449Z,2.46
2018-02-04T22:47:39.350Z,2.43
2018-02-04T22:50:07.266Z,2.27
2018-02-04T22:52:35.201Z,2.34
2018-02-04T22:55:03.132Z,2.35
2018-02-04T22:57:31.104Z,2.22
2018-02-04T22:59:58.998Z,2.30
2018-02-04T23:02:26.942Z,2.46
2018-02-04T23:04:54.847Z,2.36
2018-02-04T23:07:22.761Z,2.37
2018-02-04T23:09:50.693Z,2.34
2018-02-04T23:12:18.612Z,2.42
2018-02-04T23:14:46.614Z,2.25
2018-02-04T23:17:15.121Z,2.36
2018-02-04T23:19:43.066Z,2.40
2018-02-04T23:22:11.001Z,2.34
2018-02-04T23:24:39.106Z,2.29
2018-02-04T23:27:07.210Z,2.40
2018-02-04T23:29:35.144Z,2.30
2018-02-04T23:32:03.070Z,2.41
2018-02-04T23:34:30.975Z,2.39
2018-02-04T23:36:58.948Z,2.46
2018-02-04T23:39:26.845Z,2.42
2018-02-04T23:41:54.925Z,2.60
2018-02-04T23:44:22.824Z,2.42
2018-02-04T23:46:50.764Z,2.26
2018-02-04T23:49:18.674Z,2.37
2018-02-04T23:51:46.609Z,2.41
2018-02-04T23:54:14.577Z,2.34
2018-02-04T23:56:42.498Z,2.37
2018-02-04T23:59:11.164Z,2.41
